createdAt,value
2017-11-18T00:00:07.809Z,5.07
2017-11-18T00:02:33.771Z,5.40
2017-11-18T00:04:59.726Z,5.98
2017-11-18T00:07:25.660Z,5.35
2017-11-18T00:09:51.592Z,5.30
2017-11-18T00:12:17.555Z,5.50
2017-11-18T00:14:43.493Z,5.76
2017-11-18T00:17:09.450Z,5.26
2017-11-18T00:19:35.373Z,5.31
2017-11-18T00:22:01.301Z,5.09
2017-11-18T00:24:27.229Z,5.52
2017-11-18T00:26:53.162Z,5.83
2017-11-18T00:29:19.116Z,5.55
2017-11-18T00:31:45.054Z,5.85
2017-11-18T00:34:11.001Z,5.23
2017-11-18T00:36:36.929Z,5.30
2017-11-18T00:39:02.880Z,5.18
2017-11-18T00:41:28.840Z,5.13
2017-11-18T00:43:54.809Z,5.04
2017-11-18T00:46:20.802Z,5.02
2017-11-18T00:48:46.742Z,5.15
2017-11-18T00:51:12.698Z,5.01
2017-11-18T00:53:38.689Z,4.94
2017-11-18T00:56:04.600Z,5.51
2017-11-18T00:58:30.556Z,5.23
2017-11-18T01:00:56.508Z,5.48
2017-11-18T01:03:22.446Z,5.41
2017-11-18T01:05:48.382Z,5.51
2017-11-18T01:08:14.323Z,5.36
2017-11-18T01:10:40.256Z,5.41
2017-11-18T01:13:06.179Z,5.33
2017-11-18T01:15:32.134Z,5.30
2017-11-18T01:17:58.109Z,5.47
2017-11-18T01:20:24.042Z,5.38
2017-11-18T01:22:49.987Z,5.26
2017-11-18T01:25:15.917Z,5.17
2017-11-18T01:27:41.867Z,5.00
2017-11-18T01:30:07.829Z,4.97
2017-11-18T01:32:33.767Z,5.35
2017-11-18T01:34:59.710Z,5.14
2017-11-18T01:37:25.753Z,5.51
2017-11-18T01:39:51.682Z,5.32
2017-11-18T01:42:17.613Z,5.16
2017-11-18T01:44:43.562Z,4.92
2017-11-18T01:47:09.512Z,4.91
2017-11-18T01:49:35.440Z,4.71
2017-11-18T01:52:01.384Z,4.70
2017-11-18T01:54:27.318Z,4.43
2017-11-18T01:56:53.264Z,4.93
2017-11-18T01:59:19.221Z,5.00
2017-11-18T02:01:45.176Z,5.25
2017-11-18T02:04:11.128Z,5.12
2017-11-18T02:06:37.088Z,5.05
2017-11-18T02:09:03.057Z,5.18
2017-11-18T02:11:28.990Z,4.94
2017-11-18T02:13:54.983Z,5.37
2017-11-18T02:16:20.921Z,5.15
2017-11-18T02:18:46.863Z,4.80
2017-11-18T02:21:12.804Z,4.93
2017-11-18T02:23:38.728Z,5.14
2017-11-18T02:26:04.663Z,4.99
2017-11-18T02:28:30.584Z,4.99
2017-11-18T02:30:56.530Z,4.95
2017-11-18T02:33:22.492Z,4.92
2017-11-18T02:35:48.421Z,4.97
2017-11-18T02:38:14.403Z,5.20
2017-11-18T02:40:40.344Z,5.30
2017-11-18T02:43:06.268Z,5.47
2017-11-18T02:45:32.226Z,5.39
2017-11-18T02:47:58.150Z,5.33
2017-11-18T02:50:24.108Z,5.24
2017-11-18T02:52:50.050Z,5.33
2017-11-18T02:55:16.033Z,5.50
2017-11-18T02:57:41.972Z,5.36
2017-11-18T03:00:07.935Z,5.33
2017-11-18T03:02:33.890Z,5.58
2017-11-18T03:04:59.816Z,5.62
2017-11-18T03:07:25.740Z,5.78
2017-11-18T03:09:51.677Z,5.51
2017-11-18T03:12:17.618Z,5.70
2017-11-18T03:14:43.589Z,5.53
2017-11-18T03:17:09.520Z,5.59
2017-11-18T03:19:35.484Z,5.72
2017-11-18T03:22:01.449Z,5.23
2017-11-18T03:24:27.379Z,5.28
2017-11-18T03:26:53.313Z,5.41
2017-11-18T03:29:19.273Z,5.24
2017-11-18T03:31:45.208Z,5.21
2017-11-18T03:34:11.150Z,5.35
2017-11-18T03:36:37.089Z,5.32
2017-11-18T03:39:03.121Z,5.45
2017-11-18T03:41:29.067Z,5.56
2017-11-18T03:43:54.997Z,5.58
2017-11-18T03:46:20.948Z,5.52
2017-11-18T03:48:46.882Z,5.69
2017-11-18T03:51:12.828Z,5.64
2017-11-18T03:53:38.793Z,5.57
2017-11-18T03:56:04.740Z,6.04
2017-11-18T03:58:30.684Z,5.90
2017-11-18T04:00:56.632Z,5.56
2017-11-18T04:03:22.564Z,5.44
2017-11-18T04:05:48.506Z,5.77
2017-11-18T04:08:14.454Z,6.00
2017-11-18T04:10:40.387Z,5.95
2017-11-18T04:13:06.336Z,5.95
2017-11-18T04:15:32.280Z,6.03
2017-11-18T04:17:58.252Z,6.07
2017-11-18T04:20:24.189Z,5.81
2017-11-18T04:22:50.126Z,6.11
2017-11-18T04:25:16.057Z,5.78
2017-11-18T04:27:41.989Z,5.73
2017-11-18T04:30:07.930Z,5.96
2017-11-18T04:32:33.879Z,6.04
2017-11-18T04:34:59.824Z,5.97
2017-11-18T04:37:25.750Z,6.11
2017-11-18T04:39:51.685Z,6.09
2017-11-18T04:42:17.608Z,6.14
2017-11-18T04:44:43.550Z,5.68
2017-11-18T04:47:09.480Z,5.39
2017-11-18T04:49:35.404Z,5.30
2017-11-18T04:52:01.373Z,5.41
2017-11-18T04:54:27.328Z,5.77
2017-11-18T04:56:53.261Z,5.70
2017-11-18T04:59:19.188Z,5.49
2017-11-18T05:01:45.119Z,5.84
2017-11-18T05:04:11.195Z,5.94
2017-11-18T05:06:37.141Z,5.71
2017-11-18T05:09:03.105Z,5.62
2017-11-18T05:11:29.038Z,5.76
2017-11-18T05:13:54.972Z,5.78
2017-11-18T05:16:21.108Z,5.75
2017-11-18T05:18:47.039Z,5.89
2017-11-18T05:21:12.977Z,5.84
2017-11-18T05:23:38.912Z,5.76
2017-11-18T05:26:04.853Z,5.86
2017-11-18T05:28:30.783Z,5.62
2017-11-18T05:30:56.724Z,5.73
2017-11-18T05:33:22.652Z,5.56
2017-11-18T05:35:48.599Z,5.64
2017-11-18T05:38:14.549Z,5.77
2017-11-18T05:40:40.507Z,5.59
2017-11-18T05:43:06.583Z,5.68
2017-11-18T05:45:32.550Z,5.73
2017-11-18T05:47:58.497Z,5.80
2017-11-18T05:50:24.421Z,5.67
2017-11-18T05:52:50.368Z,5.55
2017-11-18T05:55:16.353Z,5.74
2017-11-18T05:57:42.291Z,5.72
2017-11-18T06:00:08.220Z,5.68
2017-11-18T06:02:34.269Z,5.43
2017-11-18T06:05:00.202Z,5.30
2017-11-18T06:07:26.138Z,5.37
2017-11-18T06:09:52.078Z,5.42
2017-11-18T06:12:18.063Z,5.27
2017-11-18T06:14:44.028Z,5.17
2017-11-18T06:17:09.989Z,5.34
2017-11-18T06:19:36.088Z,5.22
2017-11-18T06:22:02.037Z,5.35
2017-11-18T06:24:27.964Z,5.18
2017-11-18T06:26:53.917Z,5.27
2017-11-18T06:29:19.865Z,5.28
2017-11-18T06:31:45.824Z,5.44
2017-11-18T06:34:11.832Z,5.58
2017-11-18T06:36:37.752Z,5.64
2017-11-18T06:39:03.714Z,5.86
2017-11-18T06:41:29.658Z,5.87
2017-11-18T06:43:55.616Z,6.02
2017-11-18T06:46:21.561Z,5.90
2017-11-18T06:48:47.574Z,6.14
2017-11-18T06:51:13.501Z,6.34
2017-11-18T06:53:39.437Z,6.69
2017-11-18T06:56:05.455Z,6.88
2017-11-18T06:58:31.397Z,7.06
2017-11-18T07:00:57.328Z,6.88
2017-11-18T07:03:23.294Z,7.11
2017-11-18T07:05:49.238Z,7.28
2017-11-18T07:08:15.182Z,7.19
2017-11-18T07:10:41.191Z,7.22
2017-11-18T07:13:07.123Z,7.19
2017-11-18T07:15:33.068Z,7.24
2017-11-18T07:17:59.084Z,7.21
2017-11-18T07:20:25.022Z,7.15
2017-11-18T07:22:50.977Z,7.23
2017-11-18T07:25:17.004Z,7.31
2017-11-18T07:27:42.942Z,7.43
2017-11-18T07:30:08.873Z,7.35
2017-11-18T07:32:34.819Z,7.39
2017-11-18T07:35:00.754Z,7.55
2017-11-18T07:37:26.704Z,7.49
2017-11-18T07:39:52.629Z,7.57
2017-11-18T07:42:18.577Z,7.69
2017-11-18T07:44:44.796Z,7.68
2017-11-18T07:47:10.757Z,7.73
2017-11-18T07:49:36.733Z,7.79
2017-11-18T07:52:02.694Z,7.88
2017-11-18T07:54:28.625Z,7.96
2017-11-18T07:56:54.608Z,8.13
2017-11-18T07:59:20.568Z,8.19
2017-11-18T08:01:46.500Z,8.38
2017-11-18T08:04:12.456Z,8.34
2017-11-18T08:06:38.400Z,8.25
2017-11-18T08:09:04.349Z,8.17
2017-11-18T08:11:30.308Z,8.28
2017-11-18T08:13:56.333Z,8.27
2017-11-18T08:16:22.271Z,8.33
2017-11-18T08:18:48.233Z,8.42
2017-11-18T08:21:14.221Z,8.36
2017-11-18T08:23:40.157Z,8.30
2017-11-18T08:26:06.276Z,8.42
2017-11-18T08:28:32.213Z,8.39
2017-11-18T08:30:58.162Z,8.53
2017-11-18T08:33:24.099Z,8.56
2017-11-18T08:35:50.042Z,8.58
2017-11-18T08:38:16.063Z,8.63
2017-11-18T08:40:41.996Z,8.65
2017-11-18T08:43:07.962Z,8.53
2017-11-18T08:45:33.918Z,8.59
2017-11-18T08:47:59.858Z,8.67
2017-11-18T08:50:25.785Z,8.64
2017-11-18T08:52:51.796Z,8.71
2017-11-18T08:55:17.746Z,8.74
2017-11-18T08:57:43.702Z,8.89
2017-11-18T09:00:09.689Z,8.83
2017-11-18T09:02:35.654Z,8.89
2017-11-18T09:05:01.609Z,8.99
2017-11-18T09:07:27.567Z,9.03
2017-11-18T09:09:53.501Z,8.98
2017-11-18T09:12:19.497Z,9.17
2017-11-18T09:14:45.449Z,9.23
2017-11-18T09:17:11.397Z,9.22
2017-11-18T09:19:37.355Z,9.34
2017-11-18T09:22:03.302Z,9.44
2017-11-18T09:24:29.253Z,9.41
2017-11-18T09:26:55.197Z,9.51
2017-11-18T09:29:21.127Z,9.67
2017-11-18T09:31:47.078Z,9.79
2017-11-18T09:34:13.087Z,9.72
2017-11-18T09:36:39.078Z,9.75
2017-11-18T09:39:05.027Z,9.61
2017-11-18T09:41:30.973Z,9.71
2017-11-18T09:43:56.984Z,9.40
2017-11-18T09:46:22.924Z,9.65
2017-11-18T09:48:49.073Z,9.58
2017-11-18T09:51:14.997Z,9.63
2017-11-18T09:53:41.033Z,9.78
2017-11-18T09:56:06.970Z,9.66
2017-11-18T09:58:32.920Z,9.76
2017-11-18T10:00:58.852Z,9.77
2017-11-18T10:03:24.803Z,9.61
2017-11-18T10:05:50.773Z,9.53
2017-11-18T10:08:16.712Z,9.57
2017-11-18T10:10:42.699Z,9.52
2017-11-18T10:13:08.672Z,9.55
2017-11-18T10:15:34.614Z,9.59
2017-11-18T10:18:00.613Z,9.53
2017-11-18T10:20:26.580Z,9.59
2017-11-18T10:22:52.536Z,9.58
2017-11-18T10:25:18.487Z,9.68
2017-11-18T10:27:44.433Z,9.71
2017-11-18T10:30:10.381Z,9.60
2017-11-18T10:32:36.490Z,9.60
2017-11-18T10:35:02.433Z,9.77
2017-11-18T10:37:28.370Z,9.75
2017-11-18T10:39:54.321Z,9.72
2017-11-18T10:42:20.275Z,9.70
2017-11-18T10:44:46.248Z,9.75
2017-11-18T10:47:12.189Z,9.91
2017-11-18T10:49:38.331Z,9.94
2017-11-18T10:52:04.313Z,9.68
2017-11-18T10:54:30.361Z,9.81
2017-11-18T10:56:56.319Z,10.05
2017-11-18T10:59:22.284Z,10.14
2017-11-18T11:01:48.978Z,10.09
2017-11-18T11:04:14.920Z,9.85
2017-11-18T11:06:40.874Z,10.01
2017-11-18T11:09:06.839Z,10.12
2017-11-18T11:11:32.777Z,9.99
2017-11-18T11:13:58.711Z,9.97
2017-11-18T11:16:24.659Z,10.13
2017-11-18T11:18:50.621Z,10.04
2017-11-18T11:21:16.633Z,10.09
2017-11-18T11:23:42.586Z,9.83
2017-11-18T11:26:08.584Z,9.90
2017-11-18T11:28:34.694Z,9.95
2017-11-18T11:31:00.657Z,9.74
2017-11-18T11:33:26.619Z,9.81
2017-11-18T11:35:52.598Z,9.77
2017-11-18T11:38:18.541Z,9.88
2017-11-18T11:40:44.559Z,9.90
2017-11-18T11:43:10.546Z,9.73
2017-11-18T11:45:36.531Z,9.74
2017-11-18T11:48:02.468Z,9.79
2017-11-18T11:50:28.425Z,9.77
2017-11-18T11:52:54.409Z,9.71
2017-11-18T11:55:20.364Z,9.73
2017-11-18T11:57:46.304Z,9.67
2017-11-18T12:00:12.269Z,9.65
2017-11-18T12:02:38.221Z,9.64
2017-11-18T12:05:04.188Z,9.52
2017-11-18T12:07:30.165Z,9.51
2017-11-18T12:09:56.151Z,9.41
2017-11-18T12:12:22.097Z,9.52
2017-11-18T12:14:48.065Z,9.50
2017-11-18T12:17:13.997Z,9.41
2017-11-18T12:19:39.981Z,9.47
2017-11-18T12:22:05.929Z,9.48
2017-11-18T12:24:31.895Z,9.68
2017-11-18T12:26:57.845Z,9.53
2017-11-18T12:29:23.785Z,9.42
2017-11-18T12:31:49.732Z,9.45
2017-11-18T12:34:15.681Z,9.79
2017-11-18T12:36:41.651Z,9.52
2017-11-18T12:39:07.602Z,9.51
2017-11-18T12:41:33.537Z,9.34
2017-11-18T12:43:59.494Z,9.65
2017-11-18T12:46:25.565Z,9.50
2017-11-18T12:48:51.511Z,9.21
2017-11-18T12:51:17.468Z,9.26
2017-11-18T12:53:43.490Z,9.17
2017-11-18T12:56:09.453Z,9.26
2017-11-18T12:58:35.409Z,9.30
2017-11-18T13:01:01.409Z,9.44
2017-11-18T13:03:27.419Z,9.39
2017-11-18T13:05:53.391Z,9.33
2017-11-18T13:08:19.333Z,9.41
2017-11-18T13:10:45.280Z,9.49
2017-11-18T13:13:11.250Z,9.51
2017-11-18T13:15:37.188Z,9.38
2017-11-18T13:18:03.261Z,9.48
2017-11-18T13:20:29.201Z,9.34
2017-11-18T13:22:55.148Z,9.47
2017-11-18T13:25:21.083Z,9.40
2017-11-18T13:27:47.021Z,9.14
2017-11-18T13:30:13.011Z,9.32
2017-11-18T13:32:38.957Z,9.34
2017-11-18T13:35:04.876Z,9.26
2017-11-18T13:37:30.810Z,9.32
2017-11-18T13:39:56.761Z,9.45
2017-11-18T13:42:22.702Z,9.48
2017-11-18T13:44:48.664Z,9.38
2017-11-18T13:47:14.607Z,9.31
2017-11-18T13:49:40.545Z,9.54
2017-11-18T13:52:06.484Z,9.48
2017-11-18T13:54:32.403Z,9.33
2017-11-18T13:56:58.359Z,9.34
2017-11-18T13:59:24.285Z,9.88
2017-11-18T14:01:50.254Z,9.59
2017-11-18T14:04:16.194Z,9.37
2017-11-18T14:06:42.131Z,9.49
2017-11-18T14:09:08.097Z,9.49
2017-11-18T14:11:34.044Z,9.40
2017-11-18T14:14:00.015Z,9.54
2017-11-18T14:16:25.955Z,9.44
2017-11-18T14:18:51.900Z,9.36
2017-11-18T14:21:17.846Z,9.46
2017-11-18T14:23:43.785Z,9.25
2017-11-18T14:26:09.732Z,9.34
2017-11-18T14:28:35.760Z,9.24
2017-11-18T14:31:01.705Z,9.19
2017-11-18T14:33:27.641Z,9.37
2017-11-18T14:35:53.602Z,9.33
2017-11-18T14:38:19.571Z,9.28
2017-11-18T14:40:45.517Z,9.37
2017-11-18T14:43:11.487Z,9.32
2017-11-18T14:45:37.441Z,9.37
2017-11-18T14:48:03.424Z,9.28
2017-11-18T14:50:29.385Z,9.36
2017-11-18T14:52:55.345Z,9.27
2017-11-18T14:55:21.394Z,9.40
2017-11-18T14:57:47.392Z,9.33
2017-11-18T15:00:13.330Z,9.31
2017-11-18T15:02:39.289Z,9.23
2017-11-18T15:05:05.264Z,9.27
2017-11-18T15:07:31.211Z,9.11
2017-11-18T15:09:57.194Z,9.27
2017-11-18T15:12:23.130Z,9.22
2017-11-18T15:14:49.088Z,9.34
2017-11-18T15:17:15.113Z,9.39
2017-11-18T15:19:42.423Z,9.38
2017-11-18T15:22:08.597Z,9.15
2017-11-18T15:24:34.807Z,9.19
2017-11-18T15:27:01.650Z,9.27
2017-11-18T15:29:27.914Z,9.22
2017-11-18T15:31:54.174Z,9.12
2017-11-18T15:34:20.983Z,9.17
2017-11-18T15:36:47.277Z,9.24
2017-11-18T15:39:13.446Z,9.27
2017-11-18T15:41:39.779Z,9.23
2017-11-18T15:44:06.071Z,9.36
2017-11-18T15:46:32.248Z,9.21
2017-11-18T15:48:58.464Z,9.23
2017-11-18T15:51:24.720Z,9.16
2017-11-18T15:53:51.079Z,9.38
2017-11-18T15:56:17.555Z,9.21
2017-11-18T15:58:43.766Z,9.28
2017-11-18T16:01:09.976Z,9.34
2017-11-18T16:03:36.256Z,9.17
2017-11-18T16:06:02.492Z,9.23
2017-11-18T16:08:28.768Z,9.22
2017-11-18T16:10:54.952Z,9.21
2017-11-18T16:13:21.182Z,9.27
2017-11-18T16:15:47.365Z,9.21
2017-11-18T16:18:13.534Z,9.23
2017-11-18T16:20:40.268Z,9.32
2017-11-18T16:23:06.536Z,9.44
2017-11-18T16:25:32.936Z,10.42
2017-11-18T16:27:59.204Z,10.54
2017-11-18T16:30:25.448Z,9.79
2017-11-18T16:32:51.832Z,9.77
2017-11-18T16:35:18.774Z,9.61
2017-11-18T16:37:45.109Z,9.55
2017-11-18T16:40:11.383Z,9.36
2017-11-18T16:42:37.356Z,9.35
2017-11-18T16:45:03.289Z,9.15
2017-11-18T16:47:29.231Z,9.74
2017-11-18T16:49:55.292Z,10.64
2017-11-18T16:52:21.368Z,10.79
2017-11-18T16:54:47.344Z,10.89
2017-11-18T16:57:13.309Z,10.96
2017-11-18T16:59:39.253Z,11.05
2017-11-18T17:02:05.207Z,11.07
2017-11-18T17:04:31.156Z,11.21
2017-11-18T17:06:57.088Z,11.13
2017-11-18T17:09:23.051Z,10.18
2017-11-18T17:11:49.001Z,9.98
2017-11-18T17:14:14.940Z,9.71
2017-11-18T17:16:40.876Z,9.82
2017-11-18T17:19:06.827Z,10.02
2017-11-18T17:21:32.796Z,9.72
2017-11-18T17:23:58.740Z,9.59
2017-11-18T17:26:24.694Z,9.52
2017-11-18T17:28:50.655Z,9.72
2017-11-18T17:31:16.710Z,9.43
2017-11-18T17:33:42.688Z,9.63
2017-11-18T17:36:08.639Z,9.48
2017-11-18T17:38:34.601Z,9.53
2017-11-18T17:41:00.553Z,9.44
2017-11-18T17:43:26.509Z,9.45
2017-11-18T17:45:52.452Z,9.46
2017-11-18T17:48:18.396Z,9.41
2017-11-18T17:50:44.344Z,9.64
2017-11-18T17:53:10.267Z,9.42
2017-11-18T17:55:36.213Z,9.40
2017-11-18T17:58:02.149Z,9.51
2017-11-18T18:00:28.132Z,9.46
2017-11-18T18:02:54.081Z,9.42
2017-11-18T18:05:20.029Z,9.50
2017-11-18T18:07:45.995Z,9.70
2017-11-18T18:10:11.990Z,9.58
2017-11-18T18:12:37.930Z,9.54
2017-11-18T18:15:03.869Z,9.20
2017-11-18T18:17:29.807Z,9.38
2017-11-18T18:19:56.939Z,8.98
2017-11-18T18:22:22.979Z,9.08
2017-11-18T18:24:48.944Z,9.18
2017-11-18T18:27:14.942Z,9.21
2017-11-18T18:29:40.897Z,9.19
2017-11-18T18:32:06.847Z,9.08
2017-11-18T18:34:32.813Z,9.02
2017-11-18T18:36:58.777Z,9.13
2017-11-18T18:39:24.741Z,8.85
2017-11-18T18:41:50.703Z,8.81
2017-11-18T18:44:16.701Z,8.76
2017-11-18T18:46:42.723Z,8.99
2017-11-18T18:49:08.716Z,9.06
2017-11-18T18:51:34.693Z,8.78
2017-11-18T18:54:00.681Z,9.05
2017-11-18T18:56:26.709Z,8.85
2017-11-18T18:58:52.724Z,8.93
2017-11-18T19:01:18.665Z,8.77
2017-11-18T19:03:44.789Z,8.78
2017-11-18T19:06:10.745Z,8.80
2017-11-18T19:08:36.677Z,8.90
2017-11-18T19:11:02.626Z,8.69
2017-11-18T19:13:28.575Z,8.82
2017-11-18T19:15:54.599Z,8.58
2017-11-18T19:18:20.599Z,8.79
2017-11-18T19:20:46.555Z,8.64
2017-11-18T19:23:12.513Z,8.73
2017-11-18T19:25:38.484Z,8.74
2017-11-18T19:28:04.455Z,8.63
2017-11-18T19:30:30.405Z,8.72
2017-11-18T19:32:56.349Z,8.68
2017-11-18T19:35:22.289Z,8.78
2017-11-18T19:37:48.248Z,8.77
2017-11-18T19:40:14.326Z,8.68
2017-11-18T19:42:40.350Z,9.64
2017-11-18T19:45:06.328Z,10.20
2017-11-18T19:47:32.286Z,10.04
2017-11-18T19:49:58.229Z,10.24
2017-11-18T19:52:24.701Z,10.25
2017-11-18T19:54:50.635Z,10.49
2017-11-18T19:57:16.583Z,10.12
2017-11-18T19:59:42.517Z,10.04
2017-11-18T20:02:08.513Z,9.34
2017-11-18T20:04:34.464Z,8.88
2017-11-18T20:07:00.405Z,8.88
2017-11-18T20:09:26.359Z,8.94
2017-11-18T20:11:52.355Z,9.01
2017-11-18T20:14:18.369Z,8.82
2017-11-18T20:16:44.329Z,8.92
2017-11-18T20:19:10.268Z,8.77
2017-11-18T20:21:36.314Z,8.76
2017-11-18T20:24:02.280Z,8.77
2017-11-18T20:26:28.221Z,8.74
2017-11-18T20:28:54.155Z,8.82
2017-11-18T20:31:20.222Z,8.77
2017-11-18T20:33:46.188Z,8.84
2017-11-18T20:36:12.131Z,8.73
2017-11-18T20:38:38.175Z,8.65
2017-11-18T20:41:04.137Z,8.63
2017-11-18T20:43:30.067Z,8.60
2017-11-18T20:45:56.032Z,8.64
2017-11-18T20:48:21.974Z,8.76
2017-11-18T20:50:47.935Z,8.79
2017-11-18T20:53:13.879Z,8.94
2017-11-18T20:55:39.849Z,8.75
2017-11-18T20:58:05.787Z,8.66
2017-11-18T21:00:31.781Z,8.76
2017-11-18T21:02:57.726Z,8.75
2017-11-18T21:05:23.769Z,8.74
2017-11-18T21:07:49.702Z,8.90
2017-11-18T21:10:15.642Z,8.95
2017-11-18T21:12:41.600Z,8.95
2017-11-18T21:15:07.549Z,8.92
2017-11-18T21:17:33.517Z,8.80
2017-11-18T21:19:59.449Z,8.81
2017-11-18T21:22:25.404Z,8.52
2017-11-18T21:24:51.361Z,8.60
2017-11-18T21:27:17.294Z,8.71
2017-11-18T21:29:43.379Z,8.44
2017-11-18T21:32:09.393Z,8.68
2017-11-18T21:34:35.345Z,8.90
2017-11-18T21:37:01.317Z,8.64
2017-11-18T21:39:27.253Z,8.61
2017-11-18T21:41:53.202Z,8.65
2017-11-18T21:44:19.132Z,8.61
2017-11-18T21:46:45.086Z,8.82
2017-11-18T21:49:11.013Z,8.69
2017-11-18T21:51:36.934Z,8.74
2017-11-18T21:54:02.907Z,8.76
2017-11-18T21:56:28.845Z,8.84
2017-11-18T21:58:54.809Z,8.78
2017-11-18T22:01:20.734Z,8.90
2017-11-18T22:03:46.751Z,8.75
2017-11-18T22:06:12.683Z,8.91
2017-11-18T22:08:38.693Z,8.64
2017-11-18T22:11:04.621Z,8.71
2017-11-18T22:13:30.562Z,8.79
2017-11-18T22:15:56.557Z,8.62
2017-11-18T22:18:22.477Z,8.66
2017-11-18T22:20:48.451Z,8.69
2017-11-18T22:23:14.387Z,8.66
2017-11-18T22:25:40.327Z,8.50
2017-11-18T22:28:06.266Z,8.48
2017-11-18T22:30:32.193Z,8.69
2017-11-18T22:32:58.139Z,8.53
2017-11-18T22:35:24.079Z,8.58
2017-11-18T22:37:50.015Z,8.63
2017-11-18T22:40:15.966Z,8.51
2017-11-18T22:42:41.888Z,8.59
2017-11-18T22:45:07.829Z,8.55
2017-11-18T22:47:33.767Z,8.50
2017-11-18T22:49:59.704Z,8.63
2017-11-18T22:52:25.707Z,8.56
2017-11-18T22:54:51.641Z,8.46
2017-11-18T22:57:17.588Z,8.48
2017-11-18T22:59:43.528Z,8.53
2017-11-18T23:02:09.480Z,8.56
2017-11-18T23:04:35.418Z,8.65
2017-11-18T23:07:01.373Z,8.53
2017-11-18T23:09:27.324Z,8.44
2017-11-18T23:11:53.254Z,8.57
2017-11-18T23:14:19.176Z,8.65
2017-11-18T23:16:45.325Z,8.57
2017-11-18T23:19:11.274Z,8.69
2017-11-18T23:21:37.227Z,8.57
2017-11-18T23:24:03.165Z,8.68
2017-11-18T23:26:29.107Z,8.58
2017-11-18T23:28:55.076Z,8.69
2017-11-18T23:31:21.000Z,8.83
2017-11-18T23:33:46.931Z,8.68
2017-11-18T23:36:12.885Z,8.68
2017-11-18T23:38:38.901Z,8.62
2017-11-18T23:41:04.864Z,8.58
2017-11-18T23:43:30.844Z,8.78
2017-11-18T23:45:56.776Z,8.74
2017-11-18T23:48:22.718Z,8.70
2017-11-18T23:50:48.673Z,8.74
2017-11-18T23:53:14.612Z,8.81
2017-11-18T23:55:40.591Z,8.78
2017-11-18T23:58:06.546Z,8.63
